»·PEaware :: N3913X KTRM-KCRQ

N3913X :: KTRM-KCRQ

FLIGHT INFORMATION

Flight Status: Arrived
Operator: Privately registered:
United States
More flights under this callsign
Pilot: Eduardo Elias G. (24838)
Aircraft: PIPER PA-28R-201 ARROW
(P28R)
More flights by this aircraft type
Origin: KTRM Desert Resorts Regl
United States
Destination: KCRQ McClellan-Palomar
United States
More flights between these airports :: More routes between these airports
Route: TRM V208 OCN
File this flight plan on PilotEdge
Remarks:
Altitude:
(Current/Filed)
10,000ft
Speed:
(Current/Filed)
135kts
Departed: 09-Oct-20 08:49 PM
Arrived: 09-Oct-20 09:34 PM
Distance/Time
Traveled:
63nm/0:44
Distance/Time
To Go:
Arrived

Flight Plot

Page will automatically refresh every two minutes.

Flight plan parsing failed; only flown route is shown


Map Options




Map Legend


Flown Route
Filed Route
Departure Airport
Arrival Airport
Navaid (VOR, NDB)
Fix

Horizontal Profiles

Position Reports

Time Latitude Longitude Heading Altitude Ground
Speed
09-Oct-20 20:16 33.634723 -116.162135 90 -112ft 0kts
09-Oct-20 20:17 33.634723 -116.162135 90 -112ft 0kts
09-Oct-20 20:18 33.634723 -116.162135 90 -112ft 0kts
09-Oct-20 20:19 33.634723 -116.162135 90 -112ft 0kts
09-Oct-20 20:20 33.634723 -116.162135 90 -112ft 0kts
09-Oct-20 20:21 33.634723 -116.162135 90 -112ft 0kts
09-Oct-20 20:22 33.634723 -116.162135 90 -112ft 0kts
09-Oct-20 20:23 33.634723 -116.162135 90 -112ft 0kts
09-Oct-20 20:24 33.634723 -116.162135 90 -112ft 0kts
09-Oct-20 20:25 33.634723 -116.162135 90 -112ft 0kts
09-Oct-20 20:26 33.634723 -116.162135 90 -112ft 0kts
09-Oct-20 20:27 33.634723 -116.162135 90 -112ft 0kts
09-Oct-20 20:28 33.634723 -116.162135 90 -112ft 0kts
09-Oct-20 20:29 33.634723 -116.162135 90 -112ft 0kts
09-Oct-20 20:30 33.634723 -116.162135 90 -112ft 0kts
09-Oct-20 20:31 33.634723 -116.162135 90 -112ft 0kts
09-Oct-20 20:32 33.634723 -116.162135 90 -112ft 0kts
09-Oct-20 20:33 33.634723 -116.162135 90 -112ft 0kts
09-Oct-20 20:34 33.634723 -116.162135 90 -112ft 0kts
09-Oct-20 20:35 33.634723 -116.162134 90 -112ft 0kts
09-Oct-20 20:36 33.634723 -116.162134 90 -112ft 0kts
09-Oct-20 20:37 33.634471 -116.161988 177 -112ft 4kts
09-Oct-20 20:38 33.634131 -116.159895 90 -112ft 10kts
09-Oct-20 20:39 33.632548 -116.157722 179 -112ft 13kts
09-Oct-20 20:40 33.628377 -116.157722 180 -112ft 15kts
09-Oct-20 20:41 33.624374 -116.157726 179 -112ft 13kts
09-Oct-20 20:42 33.620931 -116.157724 180 -112ft 11kts
09-Oct-20 20:43 33.617880 -116.157726 180 -112ft 9kts
09-Oct-20 20:44 33.615870 -116.157480 104 -112ft 0kts
09-Oct-20 20:45 33.615870 -116.157480 104 -112ft 0kts
09-Oct-20 20:46 33.615870 -116.157480 104 -112ft 0kts
09-Oct-20 20:47 33.615871 -116.156988 89 -112ft 6kts
09-Oct-20 20:48 33.625559 -116.155631 2 149ft 77kts
09-Oct-20 20:49 33.645270 -116.159516 1 1466ft 80kts
09-Oct-20 20:50 33.662369 -116.143547 63 2190ft 108kts
09-Oct-20 20:51 33.666419 -116.107026 87 3012ft 108kts
09-Oct-20 20:52 33.665157 -116.070674 130 3619ft 116kts
09-Oct-20 20:53 33.643605 -116.043121 146 4187ft 117kts
09-Oct-20 20:54 33.612821 -116.042955 195 4794ft 110kts
09-Oct-20 20:55 33.581399 -116.049647 190 5416ft 116kts
09-Oct-20 20:56 33.549621 -116.058873 191 6018ft 118kts
09-Oct-20 20:57 33.516661 -116.063798 179 6596ft 121kts
09-Oct-20 20:58 33.483143 -116.060655 166 7187ft 119kts
09-Oct-20 20:59 33.449949 -116.050839 165 7689ft 121kts
09-Oct-20 21:00 33.416692 -116.048388 228 8034ft 128kts
09-Oct-20 21:01 33.398681 -116.082626 241 8508ft 127kts
09-Oct-20 21:02 33.379961 -116.119696 241 8658ft 133kts
09-Oct-20 21:03 33.363792 -116.151602 242 8941ft 130kts
09-Oct-20 21:04 33.344800 -116.189009 242 8925ft 145kts
09-Oct-20 21:05 33.324525 -116.229837 245 8776ft 140kts
09-Oct-20 21:06 33.308985 -116.270191 251 9093ft 118kts
09-Oct-20 21:07 33.295441 -116.306984 248 9526ft 116kts
09-Oct-20 21:08 33.281106 -116.342379 245 9945ft 118kts
09-Oct-20 21:09 33.265533 -116.378855 245 10121ft 126kts
09-Oct-20 21:10 33.246128 -116.414941 232 10076ft 136kts
09-Oct-20 21:11 33.224012 -116.451178 239 9994ft 132kts
09-Oct-20 21:12 33.203004 -116.487690 238 9917ft 134kts
09-Oct-20 21:13 33.181589 -116.523855 238 9890ft 133kts
09-Oct-20 21:14 33.160323 -116.559630 238 9868ft 133kts
09-Oct-20 21:15 33.146735 -116.597505 276 10020ft 122kts
09-Oct-20 21:16 33.150771 -116.637670 279 10099ft 121kts
09-Oct-20 21:17 33.155299 -116.678454 278 9613ft 127kts
09-Oct-20 21:18 33.159052 -116.721337 278 8820ft 131kts
09-Oct-20 21:19 33.162776 -116.764903 277 7772ft 134kts
09-Oct-20 21:20 33.166649 -116.808400 278 6789ft 130kts
09-Oct-20 21:21 33.170648 -116.851386 279 5858ft 127kts
09-Oct-20 21:22 33.177273 -116.888950 295 5936ft 118kts
09-Oct-20 21:23 33.182360 -116.928067 266 6058ft 126kts
09-Oct-20 21:24 33.178496 -116.972171 262 5497ft 136kts
09-Oct-20 21:25 33.171842 -117.015424 259 4821ft 124kts
09-Oct-20 21:26 33.163306 -117.055212 264 4339ft 124kts
09-Oct-20 21:27 33.158225 -117.095923 250 3729ft 125kts
09-Oct-20 21:28 33.151189 -117.135868 264 2627ft 121kts
09-Oct-20 21:30 33.145928 -117.170365 255 2059ft 93kts
09-Oct-20 21:31 33.141107 -117.199419 258 1689ft 86kts
09-Oct-20 21:32 33.136182 -117.229983 258 1236ft 97kts
09-Oct-20 21:33 33.131614 -117.259062 260 589ft 83kts
09-Oct-20 21:34 33.128332 -117.279230 222 334ft 8kts
09-Oct-20 21:35 33.127543 -117.279483 112 334ft 0kts
09-Oct-20 21:36 33.127542 -117.279481 114 334ft 0kts
09-Oct-20 21:37 33.127835 -117.277543 80 334ft 9kts
09-Oct-20 21:38 33.127874 -117.274648 143 334ft 7kts
09-Oct-20 21:39 33.127910 -117.274789 346 334ft 0kts
09-Oct-20 21:40 33.127910 -117.274789 346 334ft 0kts
09-Oct-20 21:41 33.127910 -117.274789 346 334ft 0kts

Navigation Log

Ident Type
Flight plan parsing failed, navigation log unavailable